sensor_id;sensor_type;location;lat;lon;timestamp;P1;durP1;ratioP1;P2;durP2;ratioP2
51030;SDS011;37058;41.442;23.240;2023-04-23T00:01:05;8.33;;;5.97;;
51030;SDS011;37058;41.442;23.240;2023-04-23T00:03:32;25.30;;;14.60;;
51030;SDS011;37058;41.442;23.240;2023-04-23T00:06:04;14.07;;;8.57;;
51030;SDS011;37058;41.442;23.240;2023-04-23T00:08:33;10.00;;;6.63;;
51030;SDS011;37058;41.442;23.240;2023-04-23T00:11:00;13.03;;;8.07;;
51030;SDS011;37058;41.442;23.240;2023-04-23T00:13:26;17.37;;;11.23;;
51030;SDS011;37058;41.442;23.240;2023-04-23T00:15:52;20.07;;;16.17;;
51030;SDS011;37058;41.442;23.240;2023-04-23T00:18:18;16.43;;;13.40;;
51030;SDS011;37058;41.442;23.240;2023-04-23T00:20:44;15.13;;;11.50;;
51030;SDS011;37058;41.442;23.240;2023-04-23T00:23:10;13.47;;;11.47;;
51030;SDS011;37058;41.442;23.240;2023-04-23T00:25:36;11.47;;;8.60;;
51030;SDS011;37058;41.442;23.240;2023-04-23T00:28:02;10.23;;;8.00;;
51030;SDS011;37058;41.442;23.240;2023-04-23T00:30:28;10.20;;;8.17;;
51030;SDS011;37058;41.442;23.240;2023-04-23T00:32:54;9.07;;;7.03;;
51030;SDS011;37058;41.442;23.240;2023-04-23T00:35:20;10.00;;;7.30;;
51030;SDS011;37058;41.442;23.240;2023-04-23T00:37:46;9.50;;;7.03;;
51030;SDS011;37058;41.442;23.240;2023-04-23T00:40:12;8.87;;;6.73;;
51030;SDS011;37058;41.442;23.240;2023-04-23T00:42:38;9.73;;;6.87;;
51030;SDS011;37058;41.442;23.240;2023-04-23T00:45:07;8.80;;;6.50;;
51030;SDS011;37058;41.442;23.240;2023-04-23T00:47:34;8.93;;;6.53;;
51030;SDS011;37058;41.442;23.240;2023-04-23T00:50:01;13.07;;;8.07;;
51030;SDS011;37058;41.442;23.240;2023-04-23T00:52:27;13.03;;;7.83;;
51030;SDS011;37058;41.442;23.240;2023-04-23T00:54:54;12.83;;;8.60;;
51030;SDS011;37058;41.442;23.240;2023-04-23T00:57:20;13.60;;;9.77;;
51030;SDS011;37058;41.442;23.240;2023-04-23T00:59:47;14.27;;;11.30;;
51030;SDS011;37058;41.442;23.240;2023-04-23T01:02:14;15.97;;;12.63;;
51030;SDS011;37058;41.442;23.240;2023-04-23T01:04:42;14.87;;;11.63;;
51030;SDS011;37058;41.442;23.240;2023-04-23T01:07:10;13.57;;;12.17;;
51030;SDS011;37058;41.442;23.240;2023-04-23T01:09:36;15.83;;;13.03;;
51030;SDS011;37058;41.442;23.240;2023-04-23T01:12:04;16.67;;;11.47;;
51030;SDS011;37058;41.442;23.240;2023-04-23T01:14:30;13.83;;;11.73;;
51030;SDS011;37058;41.442;23.240;2023-04-23T01:16:57;14.17;;;10.53;;
51030;SDS011;37058;41.442;23.240;2023-04-23T01:19:23;16.07;;;10.90;;
51030;SDS011;37058;41.442;23.240;2023-04-23T01:21:50;19.67;;;12.13;;
51030;SDS011;37058;41.442;23.240;2023-04-23T01:24:17;18.73;;;12.13;;
51030;SDS011;37058;41.442;23.240;2023-04-23T01:26:43;24.20;;;13.57;;
51030;SDS011;37058;41.442;23.240;2023-04-23T01:29:09;26.60;;;13.93;;
51030;SDS011;37058;41.442;23.240;2023-04-23T01:31:35;35.10;;;14.93;;
51030;SDS011;37058;41.442;23.240;2023-04-23T01:34:02;42.97;;;15.27;;
51030;SDS011;37058;41.442;23.240;2023-04-23T01:36:28;31.93;;;14.50;;
51030;SDS011;37058;41.442;23.240;2023-04-23T01:38:55;33.47;;;15.23;;
51030;SDS011;37058;41.442;23.240;2023-04-23T01:41:21;33.80;;;14.87;;
51030;SDS011;37058;41.442;23.240;2023-04-23T01:43:47;47.97;;;15.07;;
51030;SDS011;37058;41.442;23.240;2023-04-23T01:46:13;25.20;;;13.57;;
51030;SDS011;37058;41.442;23.240;2023-04-23T01:48:39;38.40;;;15.00;;
51030;SDS011;37058;41.442;23.240;2023-04-23T01:51:05;41.77;;;16.00;;
51030;SDS011;37058;41.442;23.240;2023-04-23T01:53:32;29.07;;;15.73;;
51030;SDS011;37058;41.442;23.240;2023-04-23T01:55:58;30.37;;;15.07;;
51030;SDS011;37058;41.442;23.240;2023-04-23T01:58:26;39.27;;;15.53;;
51030;SDS011;37058;41.442;23.240;2023-04-23T02:00:52;32.97;;;15.00;;
51030;SDS011;37058;41.442;23.240;2023-04-23T02:03:18;41.70;;;15.60;;
51030;SDS011;37058;41.442;23.240;2023-04-23T02:05:44;44.50;;;15.83;;
51030;SDS011;37058;41.442;23.240;2023-04-23T02:08:10;37.10;;;15.83;;
51030;SDS011;37058;41.442;23.240;2023-04-23T02:10:36;36.23;;;14.77;;
51030;SDS011;37058;41.442;23.240;2023-04-23T02:13:02;25.97;;;14.00;;
51030;SDS011;37058;41.442;23.240;2023-04-23T02:15:28;27.90;;;15.03;;
51030;SDS011;37058;41.442;23.240;2023-04-23T02:17:54;29.00;;;15.37;;
51030;SDS011;37058;41.442;23.240;2023-04-23T02:20:20;22.20;;;14.53;;
51030;SDS011;37058;41.442;23.240;2023-04-23T02:22:47;26.03;;;14.30;;
51030;SDS011;37058;41.442;23.240;2023-04-23T02:25:15;22.40;;;13.23;;
51030;SDS011;37058;41.442;23.240;2023-04-23T02:27:42;17.17;;;11.10;;
51030;SDS011;37058;41.442;23.240;2023-04-23T02:30:09;23.13;;;11.80;;
51030;SDS011;37058;41.442;23.240;2023-04-23T02:32:36;25.00;;;10.33;;
51030;SDS011;37058;41.442;23.240;2023-04-23T02:35:02;18.97;;;10.93;;
51030;SDS011;37058;41.442;23.240;2023-04-23T02:37:33;25.57;;;14.07;;
51030;SDS011;37058;41.442;23.240;2023-04-23T02:40:01;24.73;;;14.57;;
51030;SDS011;37058;41.442;23.240;2023-04-23T02:42:29;30.60;;;15.27;;
51030;SDS011;37058;41.442;23.240;2023-04-23T02:44:55;33.47;;;16.20;;
51030;SDS011;37058;41.442;23.240;2023-04-23T02:47:21;25.43;;;13.67;;
51030;SDS011;37058;41.442;23.240;2023-04-23T02:49:47;20.73;;;12.90;;
51030;SDS011;37058;41.442;23.240;2023-04-23T02:52:13;18.93;;;11.53;;
51030;SDS011;37058;41.442;23.240;2023-04-23T02:54:39;15.43;;;10.23;;
51030;SDS011;37058;41.442;23.240;2023-04-23T02:57:05;16.43;;;9.90;;
51030;SDS011;37058;41.442;23.240;2023-04-23T02:59:31;14.33;;;9.33;;
51030;SDS011;37058;41.442;23.240;2023-04-23T03:01:56;15.07;;;8.67;;
51030;SDS011;37058;41.442;23.240;2023-04-23T03:04:22;16.13;;;9.43;;
51030;SDS011;37058;41.442;23.240;2023-04-23T03:06:48;15.47;;;10.17;;
51030;SDS011;37058;41.442;23.240;2023-04-23T03:09:14;15.83;;;10.23;;
51030;SDS011;37058;41.442;23.240;2023-04-23T03:11:40;20.37;;;11.00;;
51030;SDS011;37058;41.442;23.240;2023-04-23T03:14:06;17.93;;;9.33;;
51030;SDS011;37058;41.442;23.240;2023-04-23T03:16:32;18.00;;;11.37;;
51030;SDS011;37058;41.442;23.240;2023-04-23T03:19:01;23.20;;;10.63;;
51030;SDS011;37058;41.442;23.240;2023-04-23T03:21:30;20.83;;;10.10;;
51030;SDS011;37058;41.442;23.240;2023-04-23T03:23:55;14.60;;;9.00;;
51030;SDS011;37058;41.442;23.240;2023-04-23T03:26:21;17.77;;;8.17;;
51030;SDS011;37058;41.442;23.240;2023-04-23T03:28:47;23.23;;;8.63;;
51030;SDS011;37058;41.442;23.240;2023-04-23T03:31:13;18.17;;;9.43;;
51030;SDS011;37058;41.442;23.240;2023-04-23T03:33:39;12.60;;;9.20;;
51030;SDS011;37058;41.442;23.240;2023-04-23T03:36:05;18.50;;;9.53;;
51030;SDS011;37058;41.442;23.240;2023-04-23T03:38:31;24.63;;;11.13;;
51030;SDS011;37058;41.442;23.240;2023-04-23T03:40:57;16.37;;;9.77;;
51030;SDS011;37058;41.442;23.240;2023-04-23T03:43:22;16.37;;;9.97;;
51030;SDS011;37058;41.442;23.240;2023-04-23T03:45:48;20.77;;;10.13;;
51030;SDS011;37058;41.442;23.240;2023-04-23T03:48:14;17.60;;;10.17;;
51030;SDS011;37058;41.442;23.240;2023-04-23T03:50:40;22.23;;;9.83;;
51030;SDS011;37058;41.442;23.240;2023-04-23T03:53:06;16.80;;;9.87;;
51030;SDS011;37058;41.442;23.240;2023-04-23T03:55:34;17.47;;;9.93;;
51030;SDS011;37058;41.442;23.240;2023-04-23T03:57:59;26.33;;;12.33;;
51030;SDS011;37058;41.442;23.240;2023-04-23T04:00:27;29.07;;;12.63;;
51030;SDS011;37058;41.442;23.240;2023-04-23T04:02:53;26.17;;;11.03;;
51030;SDS011;37058;41.442;23.240;2023-04-23T04:05:19;16.13;;;9.57;;
51030;SDS011;37058;41.442;23.240;2023-04-23T04:07:46;25.80;;;10.67;;
51030;SDS011;37058;41.442;23.240;2023-04-23T04:10:12;19.77;;;10.93;;
51030;SDS011;37058;41.442;23.240;2023-04-23T04:12:38;20.07;;;10.53;;
51030;SDS011;37058;41.442;23.240;2023-04-23T04:15:05;19.10;;;9.87;;
51030;SDS011;37058;41.442;23.240;2023-04-23T04:17:31;24.10;;;11.10;;
51030;SDS011;37058;41.442;23.240;2023-04-23T04:19:57;21.80;;;10.47;;
51030;SDS011;37058;41.442;23.240;2023-04-23T04:22:23;22.37;;;11.37;;
51030;SDS011;37058;41.442;23.240;2023-04-23T04:24:49;35.93;;;12.53;;
51030;SDS011;37058;41.442;23.240;2023-04-23T04:27:16;20.07;;;11.97;;
51030;SDS011;37058;41.442;23.240;2023-04-23T04:29:42;19.13;;;11.03;;
51030;SDS011;37058;41.442;23.240;2023-04-23T04:32:08;18.87;;;10.43;;
51030;SDS011;37058;41.442;23.240;2023-04-23T04:34:35;25.23;;;12.13;;
51030;SDS011;37058;41.442;23.240;2023-04-23T04:37:02;17.53;;;11.00;;
51030;SDS011;37058;41.442;23.240;2023-04-23T04:39:28;35.10;;;12.63;;
51030;SDS011;37058;41.442;23.240;2023-04-23T04:41:54;31.67;;;13.07;;
51030;SDS011;37058;41.442;23.240;2023-04-23T04:44:21;23.83;;;12.57;;
51030;SDS011;37058;41.442;23.240;2023-04-23T04:46:47;23.47;;;13.67;;
51030;SDS011;37058;41.442;23.240;2023-04-23T04:49:13;25.40;;;11.60;;
51030;SDS011;37058;41.442;23.240;2023-04-23T04:51:39;22.00;;;12.53;;
51030;SDS011;37058;41.442;23.240;2023-04-23T04:54:06;21.67;;;12.80;;
51030;SDS011;37058;41.442;23.240;2023-04-23T04:56:32;27.37;;;11.97;;
51030;SDS011;37058;41.442;23.240;2023-04-23T04:58:59;26.10;;;13.13;;
51030;SDS011;37058;41.442;23.240;2023-04-23T05:01:26;23.93;;;12.20;;
51030;SDS011;37058;41.442;23.240;2023-04-23T05:03:54;27.60;;;12.90;;
51030;SDS011;37058;41.442;23.240;2023-04-23T05:06:20;21.10;;;11.63;;
51030;SDS011;37058;41.442;23.240;2023-04-23T05:08:46;19.33;;;11.77;;
51030;SDS011;37058;41.442;23.240;2023-04-23T05:11:15;20.77;;;11.47;;
51030;SDS011;37058;41.442;23.240;2023-04-23T05:13:43;17.33;;;11.23;;
51030;SDS011;37058;41.442;23.240;2023-04-23T05:16:10;17.40;;;11.10;;
51030;SDS011;37058;41.442;23.240;2023-04-23T05:18:36;17.37;;;10.70;;
51030;SDS011;37058;41.442;23.240;2023-04-23T05:21:03;16.97;;;10.60;;
51030;SDS011;37058;41.442;23.240;2023-04-23T05:23:30;13.37;;;10.47;;
51030;SDS011;37058;41.442;23.240;2023-04-23T05:25:56;15.23;;;10.13;;
51030;SDS011;37058;41.442;23.240;2023-04-23T05:28:23;18.63;;;10.93;;
51030;SDS011;37058;41.442;23.240;2023-04-23T05:30:50;17.67;;;11.03;;
51030;SDS011;37058;41.442;23.240;2023-04-23T05:33:16;17.63;;;13.70;;
51030;SDS011;37058;41.442;23.240;2023-04-23T05:35:42;15.87;;;11.77;;
51030;SDS011;37058;41.442;23.240;2023-04-23T05:38:08;16.80;;;11.60;;
51030;SDS011;37058;41.442;23.240;2023-04-23T05:40:34;13.80;;;11.17;;
51030;SDS011;37058;41.442;23.240;2023-04-23T05:43:00;13.90;;;10.57;;
51030;SDS011;37058;41.442;23.240;2023-04-23T05:45:26;13.50;;;10.67;;
51030;SDS011;37058;41.442;23.240;2023-04-23T05:47:52;15.37;;;11.53;;
51030;SDS011;37058;41.442;23.240;2023-04-23T05:50:19;15.73;;;12.00;;
51030;SDS011;37058;41.442;23.240;2023-04-23T05:52:45;12.80;;;9.90;;
51030;SDS011;37058;41.442;23.240;2023-04-23T05:55:11;16.23;;;12.00;;
51030;SDS011;37058;41.442;23.240;2023-04-23T05:57:39;15.40;;;12.50;;
51030;SDS011;37058;41.442;23.240;2023-04-23T06:00:06;15.37;;;11.37;;
51030;SDS011;37058;41.442;23.240;2023-04-23T06:02:36;15.10;;;11.00;;
51030;SDS011;37058;41.442;23.240;2023-04-23T06:05:03;12.70;;;10.47;;
51030;SDS011;37058;41.442;23.240;2023-04-23T06:07:30;14.40;;;11.57;;
51030;SDS011;37058;41.442;23.240;2023-04-23T06:09:56;13.97;;;11.77;;
51030;SDS011;37058;41.442;23.240;2023-04-23T06:12:23;12.70;;;10.47;;
51030;SDS011;37058;41.442;23.240;2023-04-23T06:14:48;12.70;;;10.37;;
51030;SDS011;37058;41.442;23.240;2023-04-23T06:17:17;16.20;;;11.40;;
51030;SDS011;37058;41.442;23.240;2023-04-23T06:19:42;14.37;;;10.97;;
51030;SDS011;37058;41.442;23.240;2023-04-23T06:22:08;15.60;;;12.00;;
51030;SDS011;37058;41.442;23.240;2023-04-23T06:24:34;12.27;;;10.53;;
51030;SDS011;37058;41.442;23.240;2023-04-23T06:27:00;14.73;;;11.40;;
51030;SDS011;37058;41.442;23.240;2023-04-23T06:29:26;13.07;;;10.80;;
51030;SDS011;37058;41.442;23.240;2023-04-23T06:31:56;14.93;;;10.57;;
51030;SDS011;37058;41.442;23.240;2023-04-23T06:34:27;12.60;;;10.53;;
51030;SDS011;37058;41.442;23.240;2023-04-23T06:36:53;14.53;;;10.20;;
51030;SDS011;37058;41.442;23.240;2023-04-23T06:39:19;12.47;;;10.50;;
51030;SDS011;37058;41.442;23.240;2023-04-23T06:41:45;14.60;;;11.80;;
51030;SDS011;37058;41.442;23.240;2023-04-23T06:44:11;14.73;;;11.40;;
51030;SDS011;37058;41.442;23.240;2023-04-23T06:46:37;15.13;;;11.97;;
51030;SDS011;37058;41.442;23.240;2023-04-23T06:49:03;15.27;;;11.73;;
51030;SDS011;37058;41.442;23.240;2023-04-23T06:51:28;17.50;;;12.27;;
51030;SDS011;37058;41.442;23.240;2023-04-23T06:53:56;13.33;;;10.77;;
51030;SDS011;37058;41.442;23.240;2023-04-23T06:56:23;14.43;;;11.17;;
51030;SDS011;37058;41.442;23.240;2023-04-23T06:58:50;15.30;;;11.83;;
51030;SDS011;37058;41.442;23.240;2023-04-23T07:01:17;13.53;;;11.57;;
51030;SDS011;37058;41.442;23.240;2023-04-23T07:03:43;18.20;;;13.90;;
51030;SDS011;37058;41.442;23.240;2023-04-23T07:06:13;14.00;;;11.57;;
51030;SDS011;37058;41.442;23.240;2023-04-23T07:08:40;13.53;;;11.07;;
51030;SDS011;37058;41.442;23.240;2023-04-23T07:11:08;14.13;;;11.70;;
51030;SDS011;37058;41.442;23.240;2023-04-23T07:13:35;15.17;;;11.80;;
51030;SDS011;37058;41.442;23.240;2023-04-23T07:16:01;12.80;;;10.00;;
51030;SDS011;37058;41.442;23.240;2023-04-23T07:18:27;11.60;;;9.23;;
51030;SDS011;37058;41.442;23.240;2023-04-23T07:20:53;13.80;;;9.63;;
51030;SDS011;37058;41.442;23.240;2023-04-23T07:23:19;13.43;;;10.67;;
51030;SDS011;37058;41.442;23.240;2023-04-23T07:25:45;13.07;;;10.57;;
51030;SDS011;37058;41.442;23.240;2023-04-23T07:28:11;12.63;;;10.20;;
51030;SDS011;37058;41.442;23.240;2023-04-23T07:30:37;12.60;;;10.10;;
51030;SDS011;37058;41.442;23.240;2023-04-23T07:33:02;10.70;;;9.60;;
51030;SDS011;37058;41.442;23.240;2023-04-23T07:35:28;12.57;;;9.50;;
51030;SDS011;37058;41.442;23.240;2023-04-23T07:37:54;10.40;;;9.20;;
51030;SDS011;37058;41.442;23.240;2023-04-23T07:40:22;9.43;;;7.93;;
51030;SDS011;37058;41.442;23.240;2023-04-23T07:42:49;9.80;;;8.30;;
51030;SDS011;37058;41.442;23.240;2023-04-23T07:45:16;11.60;;;9.17;;
51030;SDS011;37058;41.442;23.240;2023-04-23T07:47:43;10.23;;;9.13;;
51030;SDS011;37058;41.442;23.240;2023-04-23T07:50:10;10.07;;;7.93;;
51030;SDS011;37058;41.442;23.240;2023-04-23T07:52:37;9.23;;;7.80;;
51030;SDS011;37058;41.442;23.240;2023-04-23T07:55:03;9.47;;;7.70;;
51030;SDS011;37058;41.442;23.240;2023-04-23T07:57:30;7.47;;;6.68;;
51030;SDS011;37058;41.442;23.240;2023-04-23T07:59:56;5.50;;;4.90;;
51030;SDS011;37058;41.442;23.240;2023-04-23T08:02:22;6.73;;;5.53;;
51030;SDS011;37058;41.442;23.240;2023-04-23T08:04:50;7.93;;;6.70;;
51030;SDS011;37058;41.442;23.240;2023-04-23T08:07:17;9.10;;;6.82;;
51030;SDS011;37058;41.442;23.240;2023-04-23T08:09:43;8.55;;;7.47;;
51030;SDS011;37058;41.442;23.240;2023-04-23T08:12:09;9.93;;;6.57;;
51030;SDS011;37058;41.442;23.240;2023-04-23T08:14:35;7.10;;;6.15;;
51030;SDS011;37058;41.442;23.240;2023-04-23T08:17:02;8.30;;;6.93;;
51030;SDS011;37058;41.442;23.240;2023-04-23T08:19:28;7.55;;;5.93;;
51030;SDS011;37058;41.442;23.240;2023-04-23T08:21:57;7.22;;;5.40;;
51030;SDS011;37058;41.442;23.240;2023-04-23T08:24:23;7.38;;;5.20;;
51030;SDS011;37058;41.442;23.240;2023-04-23T08:26:50;7.38;;;6.25;;
51030;SDS011;37058;41.442;23.240;2023-04-23T08:29:17;10.15;;;6.25;;
51030;SDS011;37058;41.442;23.240;2023-04-23T08:31:43;6.85;;;5.25;;
51030;SDS011;37058;41.442;23.240;2023-04-23T08:34:08;12.75;;;5.97;;
51030;SDS011;37058;41.442;23.240;2023-04-23T08:36:34;5.82;;;5.05;;
51030;SDS011;37058;41.442;23.240;2023-04-23T08:39:00;9.38;;;5.65;;
51030;SDS011;37058;41.442;23.240;2023-04-23T08:41:31;10.63;;;6.35;;
51030;SDS011;37058;41.442;23.240;2023-04-23T08:44:11;5.65;;;4.97;;
51030;SDS011;37058;41.442;23.240;2023-04-23T08:46:47;5.57;;;4.80;;
51030;SDS011;37058;41.442;23.240;2023-04-23T08:49:14;10.90;;;5.65;;
51030;SDS011;37058;41.442;23.240;2023-04-23T08:51:42;6.28;;;5.50;;
51030;SDS011;37058;41.442;23.240;2023-04-23T08:54:21;6.05;;;4.68;;
51030;SDS011;37058;41.442;23.240;2023-04-23T08:56:52;9.38;;;4.95;;
51030;SDS011;37058;41.442;23.240;2023-04-23T08:59:22;7.88;;;4.75;;
51030;SDS011;37058;41.442;23.240;2023-04-23T09:01:54;4.93;;;4.20;;
51030;SDS011;37058;41.442;23.240;2023-04-23T09:04:21;6.80;;;4.80;;
51030;SDS011;37058;41.442;23.240;2023-04-23T09:06:49;5.20;;;4.45;;
51030;SDS011;37058;41.442;23.240;2023-04-23T09:09:16;6.22;;;4.28;;
51030;SDS011;37058;41.442;23.240;2023-04-23T09:11:42;5.78;;;4.43;;
51030;SDS011;37058;41.442;23.240;2023-04-23T09:14:08;5.18;;;4.32;;
51030;SDS011;37058;41.442;23.240;2023-04-23T09:16:36;6.30;;;3.65;;
51030;SDS011;37058;41.442;23.240;2023-04-23T09:19:05;3.72;;;2.65;;
51030;SDS011;37058;41.442;23.240;2023-04-23T09:21:35;3.28;;;2.97;;
51030;SDS011;37058;41.442;23.240;2023-04-23T09:24:08;4.70;;;3.38;;
51030;SDS011;37058;41.442;23.240;2023-04-23T09:27:10;4.88;;;3.72;;
51030;SDS011;37058;41.442;23.240;2023-04-23T09:29:30;4.70;;;3.53;;
51030;SDS011;37058;41.442;23.240;2023-04-23T09:31:57;4.95;;;3.72;;
51030;SDS011;37058;41.442;23.240;2023-04-23T09:34:37;9.68;;;4.80;;
51030;SDS011;37058;41.442;23.240;2023-04-23T09:37:04;7.33;;;5.10;;
51030;SDS011;37058;41.442;23.240;2023-04-23T09:39:35;7.00;;;4.60;;
51030;SDS011;37058;41.442;23.240;2023-04-23T09:42:04;5.18;;;4.32;;
51030;SDS011;37058;41.442;23.240;2023-04-23T09:44:32;4.38;;;3.70;;
51030;SDS011;37058;41.442;23.240;2023-04-23T09:47:08;4.55;;;3.72;;
51030;SDS011;37058;41.442;23.240;2023-04-23T09:49:43;5.40;;;3.67;;
51030;SDS011;37058;41.442;23.240;2023-04-23T09:54:40;6.53;;;3.95;;
51030;SDS011;37058;41.442;23.240;2023-04-23T09:57:07;7.43;;;4.43;;
51030;SDS011;37058;41.442;23.240;2023-04-23T09:59:35;5.00;;;3.95;;
51030;SDS011;37058;41.442;23.240;2023-04-23T10:02:05;4.68;;;4.00;;
51030;SDS011;37058;41.442;23.240;2023-04-23T10:04:32;5.43;;;3.88;;
51030;SDS011;37058;41.442;23.240;2023-04-23T10:06:59;8.15;;;4.57;;
51030;SDS011;37058;41.442;23.240;2023-04-23T10:11:58;5.68;;;4.22;;
51030;SDS011;37058;41.442;23.240;2023-04-23T10:14:27;4.40;;;3.33;;
51030;SDS011;37058;41.442;23.240;2023-04-23T10:16:57;7.28;;;3.95;;
51030;SDS011;37058;41.442;23.240;2023-04-23T10:19:29;5.05;;;3.60;;
51030;SDS011;37058;41.442;23.240;2023-04-23T10:21:57;6.90;;;3.88;;
51030;SDS011;37058;41.442;23.240;2023-04-23T10:24:33;6.13;;;4.10;;
51030;SDS011;37058;41.442;23.240;2023-04-23T10:27:03;5.07;;;3.83;;
51030;SDS011;37058;41.442;23.240;2023-04-23T10:29:34;9.02;;;4.03;;
51030;SDS011;37058;41.442;23.240;2023-04-23T10:32:01;6.97;;;4.07;;
51030;SDS011;37058;41.442;23.240;2023-04-23T10:34:29;4.93;;;4.15;;
51030;SDS011;37058;41.442;23.240;2023-04-23T10:36:57;5.53;;;3.83;;
51030;SDS011;37058;41.442;23.240;2023-04-23T10:39:29;4.45;;;4.05;;
51030;SDS011;37058;41.442;23.240;2023-04-23T10:41:58;5.03;;;3.40;;
51030;SDS011;37058;41.442;23.240;2023-04-23T10:44:35;4.93;;;3.50;;
51030;SDS011;37058;41.442;23.240;2023-04-23T10:47:03;5.00;;;3.67;;
51030;SDS011;37058;41.442;23.240;2023-04-23T10:49:31;4.35;;;3.42;;
51030;SDS011;37058;41.442;23.240;2023-04-23T10:52:02;5.60;;;3.70;;
51030;SDS011;37058;41.442;23.240;2023-04-23T10:54:43;5.47;;;3.78;;
51030;SDS011;37058;41.442;23.240;2023-04-23T10:57:14;3.92;;;3.40;;
51030;SDS011;37058;41.442;23.240;2023-04-23T10:59:51;14.15;;;4.30;;
51030;SDS011;37058;41.442;23.240;2023-04-23T11:02:18;5.88;;;3.33;;
51030;SDS011;37058;41.442;23.240;2023-04-23T11:04:52;6.30;;;3.00;;
51030;SDS011;37058;41.442;23.240;2023-04-23T11:07:28;5.20;;;2.80;;
51030;SDS011;37058;41.442;23.240;2023-04-23T11:09:59;5.32;;;3.03;;
51030;SDS011;37058;41.442;23.240;2023-04-23T11:12:37;4.28;;;2.92;;
51030;SDS011;37058;41.442;23.240;2023-04-23T11:15:11;7.60;;;3.40;;
51030;SDS011;37058;41.442;23.240;2023-04-23T11:20:11;4.50;;;3.00;;
51030;SDS011;37058;41.442;23.240;2023-04-23T11:22:48;4.60;;;3.15;;
51030;SDS011;37058;41.442;23.240;2023-04-23T11:25:19;4.80;;;2.80;;
51030;SDS011;37058;41.442;23.240;2023-04-23T11:27:46;6.85;;;4.90;;
51030;SDS011;37058;41.442;23.240;2023-04-23T11:30:18;4.25;;;2.97;;
51030;SDS011;37058;41.442;23.240;2023-04-23T11:32:46;4.22;;;2.80;;
51030;SDS011;37058;41.442;23.240;2023-04-23T11:35:18;5.60;;;3.28;;
51030;SDS011;37058;41.442;23.240;2023-04-23T11:37:47;4.53;;;2.83;;
51030;SDS011;37058;41.442;23.240;2023-04-23T11:40:14;4.05;;;2.53;;
51030;SDS011;37058;41.442;23.240;2023-04-23T11:45:18;3.92;;;2.75;;
51030;SDS011;37058;41.442;23.240;2023-04-23T11:47:48;4.70;;;3.13;;
51030;SDS011;37058;41.442;23.240;2023-04-23T11:50:20;3.78;;;2.78;;
51030;SDS011;37058;41.442;23.240;2023-04-23T11:52:49;7.05;;;3.05;;
51030;SDS011;37058;41.442;23.240;2023-04-23T11:55:16;3.83;;;2.80;;
51030;SDS011;37058;41.442;23.240;2023-04-23T11:57:44;4.18;;;2.67;;
51030;SDS011;37058;41.442;23.240;2023-04-23T12:00:23;6.72;;;3.35;;
51030;SDS011;37058;41.442;23.240;2023-04-23T12:02:55;4.47;;;2.92;;
51030;SDS011;37058;41.442;23.240;2023-04-23T12:05:26;5.03;;;3.22;;
51030;SDS011;37058;41.442;23.240;2023-04-23T12:10:58;4.60;;;2.72;;
51030;SDS011;37058;41.442;23.240;2023-04-23T12:13:27;3.92;;;2.80;;
51030;SDS011;37058;41.442;23.240;2023-04-23T12:15:58;4.72;;;3.03;;
51030;SDS011;37058;41.442;23.240;2023-04-23T12:18:29;5.70;;;2.72;;
51030;SDS011;37058;41.442;23.240;2023-04-23T12:21:06;5.55;;;2.83;;
51030;SDS011;37058;41.442;23.240;2023-04-23T12:23:39;4.00;;;3.00;;
51030;SDS011;37058;41.442;23.240;2023-04-23T12:26:17;4.25;;;2.92;;
51030;SDS011;37058;41.442;23.240;2023-04-23T12:28:45;4.43;;;3.10;;
51030;SDS011;37058;41.442;23.240;2023-04-23T12:31:17;5.57;;;3.10;;
51030;SDS011;37058;41.442;23.240;2023-04-23T12:34:06;4.10;;;2.83;;
51030;SDS011;37058;41.442;23.240;2023-04-23T12:36:34;7.28;;;3.58;;
51030;SDS011;37058;41.442;23.240;2023-04-23T12:44:33;5.53;;;3.03;;
51030;SDS011;37058;41.442;23.240;2023-04-23T12:47:04;5.88;;;3.03;;
51030;SDS011;37058;41.442;23.240;2023-04-23T12:49:34;9.93;;;2.75;;
51030;SDS011;37058;41.442;23.240;2023-04-23T12:52:03;5.13;;;2.60;;
51030;SDS011;37058;41.442;23.240;2023-04-23T12:54:34;11.02;;;7.18;;
51030;SDS011;37058;41.442;23.240;2023-04-23T12:57:03;3.60;;;2.67;;
51030;SDS011;37058;41.442;23.240;2023-04-23T12:59:39;3.97;;;2.10;;
51030;SDS011;37058;41.442;23.240;2023-04-23T13:02:05;3.60;;;2.35;;
51030;SDS011;37058;41.442;23.240;2023-04-23T13:04:32;3.28;;;2.28;;
51030;SDS011;37058;41.442;23.240;2023-04-23T13:06:59;6.28;;;2.28;;
51030;SDS011;37058;41.442;23.240;2023-04-23T13:09:26;6.07;;;2.35;;
51030;SDS011;37058;41.442;23.240;2023-04-23T13:12:00;9.02;;;2.53;;
51030;SDS011;37058;41.442;23.240;2023-04-23T13:14:26;8.27;;;2.60;;
51030;SDS011;37058;41.442;23.240;2023-04-23T13:16:52;4.03;;;2.55;;
51030;SDS011;37058;41.442;23.240;2023-04-23T13:19:18;4.05;;;2.50;;
51030;SDS011;37058;41.442;23.240;2023-04-23T13:21:44;3.78;;;2.50;;
51030;SDS011;37058;41.442;23.240;2023-04-23T13:24:10;3.50;;;2.30;;
51030;SDS011;37058;41.442;23.240;2023-04-23T13:26:36;3.70;;;2.25;;
51030;SDS011;37058;41.442;23.240;2023-04-23T13:29:02;4.25;;;2.30;;
51030;SDS011;37058;41.442;23.240;2023-04-23T13:31:29;3.80;;;2.38;;
51030;SDS011;37058;41.442;23.240;2023-04-23T13:33:55;4.60;;;2.17;;
51030;SDS011;37058;41.442;23.240;2023-04-23T13:36:22;3.17;;;2.30;;
51030;SDS011;37058;41.442;23.240;2023-04-23T13:38:49;3.83;;;2.13;;
51030;SDS011;37058;41.442;23.240;2023-04-23T13:41:15;3.45;;;2.67;;
51030;SDS011;37058;41.442;23.240;2023-04-23T13:43:41;5.20;;;2.70;;
51030;SDS011;37058;41.442;23.240;2023-04-23T13:46:07;7.72;;;2.47;;
51030;SDS011;37058;41.442;23.240;2023-04-23T13:48:33;7.63;;;2.90;;
51030;SDS011;37058;41.442;23.240;2023-04-23T13:50:59;6.25;;;2.63;;
51030;SDS011;37058;41.442;23.240;2023-04-23T13:53:26;3.40;;;2.45;;
51030;SDS011;37058;41.442;23.240;2023-04-23T13:55:53;11.48;;;2.42;;
51030;SDS011;37058;41.442;23.240;2023-04-23T13:58:20;4.05;;;2.85;;
51030;SDS011;37058;41.442;23.240;2023-04-23T14:00:47;7.75;;;3.40;;
51030;SDS011;37058;41.442;23.240;2023-04-23T14:03:13;4.20;;;2.97;;
51030;SDS011;37058;41.442;23.240;2023-04-23T14:05:39;5.25;;;3.08;;
51030;SDS011;37058;41.442;23.240;2023-04-23T14:08:05;7.40;;;2.80;;
51030;SDS011;37058;41.442;23.240;2023-04-23T14:10:31;7.32;;;2.97;;
51030;SDS011;37058;41.442;23.240;2023-04-23T14:12:58;4.50;;;2.45;;
51030;SDS011;37058;41.442;23.240;2023-04-23T14:15:24;8.07;;;4.38;;
51030;SDS011;37058;41.442;23.240;2023-04-23T14:17:50;21.08;;;10.75;;
51030;SDS011;37058;41.442;23.240;2023-04-23T14:20:16;16.33;;;7.90;;
51030;SDS011;37058;41.442;23.240;2023-04-23T14:22:47;6.22;;;4.00;;
51030;SDS011;37058;41.442;23.240;2023-04-23T14:25:23;4.22;;;2.50;;
51030;SDS011;37058;41.442;23.240;2023-04-23T14:28:01;3.47;;;2.47;;
51030;SDS011;37058;41.442;23.240;2023-04-23T14:30:47;12.95;;;3.10;;
51030;SDS011;37058;41.442;23.240;2023-04-23T14:33:13;11.10;;;2.83;;
51030;SDS011;37058;41.442;23.240;2023-04-23T14:35:39;10.82;;;3.03;;
51030;SDS011;37058;41.442;23.240;2023-04-23T14:38:04;5.78;;;2.40;;
51030;SDS011;37058;41.442;23.240;2023-04-23T14:40:30;3.33;;;2.13;;
51030;SDS011;37058;41.442;23.240;2023-04-23T14:42:56;4.35;;;2.70;;